Rachel, Nevada Weather observations

Data are for observation ending at time listed.
 Day   Time    Ave.   Ave.  Ave.  Vector   Max.   Stn.    Total    Solar   Ave.  
  of    of     Air    Rel.  Wind   Wind    Wind   Baro.  Precip.   Rad.    Soil  
Year   Day     Temp.  Hum.  Speed  Dir.    Gust   Pres.                    Temp. 
2026   (PST)    F      %     mph   deg.    mph     mb.     in.     W/m2     F   
------------------------------------------------------------------------------
 125   13:30   65.3    20   10.7   152     15.8   846.2    0.00     327    70.5
 125   13:40   64.6    20    7.4    88     14.8   846.0    0.00     627    70.3
 125   13:50   65.7    18    9.8   152     13.7   845.9    0.00     600    70.2
 125   14:00   65.2    19    4.9   154      9.8   845.8    0.00     545    70.0
 125   14:10   65.5    18    6.2   185     12.1   845.7    0.00     424    69.9
 125   14:20   66.0    18    5.9   194      9.0   845.6    0.00     495    69.8
 125   14:30   67.1    17    5.0   246      8.0   845.5    0.00     506    69.8
 125   14:40   66.9    17    6.1   305     10.8   845.5    0.00     413    69.8
 125   14:50   68.3    16    4.2   264     12.5   845.5    0.00     532    69.8
 125   15:00   68.5    16    2.9   206      6.4   845.5    0.00     570    69.7
 125   15:10   68.2    16    7.2   309     11.0   845.5    0.00     529    69.5
 125   15:20   68.1    16    7.4   316     12.6   845.4    0.00     369    69.7
 125   15:30   66.7    17    6.4   314     11.9   845.4    0.00     398    69.2
 125   15:40   66.6    17    4.3   325      7.5   845.3    0.00     329    69.3
 125   15:50   67.6    16    4.1   298      6.9   845.2    0.00     405    69.2
 125   16:00   68.0    16    3.6   342      6.6   845.3    0.00     348    69.3
 125   16:10   68.4    16    4.1   344     10.7   845.3    0.00     343    69.2
 125   16:20   67.6    16    7.1     9     11.6   845.4    0.00     314    69.0
 125   16:30   67.3    17    4.6   345      8.8   845.4    0.00     268    69.0
 125   16:40   67.4    17    3.3    74      6.9   845.4    0.00     279    69.0
 125   16:50   68.2    16    2.8    84      6.6   845.4    0.00     273    68.9
 125   17:00   68.5    16    3.4    34      9.3   845.4    0.00     247    68.6
 125   17:10   67.8    16    6.9   337     11.9   845.5    0.00     163    68.6
 125   17:20   68.4    16    3.7   295      6.8   845.5    0.00     190    68.6
 125   17:30   69.9    15    4.4   237      7.9   845.5    0.00     147    68.7
 125   17:40   68.4    15    3.3   242      5.5   845.5    0.00     119    68.4
 125   17:50   68.7    14    5.1   256      9.2   845.5    0.00      95    68.3
 125   18:00   67.0    14    3.9   248      6.2   845.4    0.00      27    68.1
 125   18:10   66.2    15    4.0   262      6.3   845.4    0.00      19    68.2
 125   18:20   65.5    16    3.2   269      5.1   845.3    0.00      14    68.0
 125   18:30   64.8    18    5.7   260     11.9   845.3    0.00      11    67.9
 125   18:40   63.4    24    8.9   244     14.3   845.5    0.00       4    67.7
 125   18:50   62.5    26    9.1   233     15.5   845.5    0.00       2    67.5
 125   19:00   62.4    25   12.7   247     18.9   845.5    0.00       0    67.3
 125   19:10   62.1    26   13.5   252     20.1   845.6    0.00       0    67.1
 125   19:20   61.3    27   10.2   261     17.8   845.7    0.00       0    67.0
 125   19:30   61.1    28   11.7    13     22.1   845.7    0.00       0    66.9
 125   19:40   61.0    28   18.1    33     26.9   846.0    0.00       0    66.7
 125   19:50   60.9    29   15.3    80     21.2   846.4    0.00       0    66.7
 125   20:00   60.4    30    8.8    42     15.2   846.7    0.00       0    66.5
 125   20:10   59.7    32   12.6    17     16.1   846.9    0.00       0    66.4
 125   20:20   58.9    34   10.7    13     13.7   847.2    0.00       0    66.0
 125   20:30   58.7    34    9.4     3     12.6   847.2    0.00       0    65.9
 125   20:40   58.1    33    5.5     9      8.6   847.2    0.00       0    66.0
 125   20:50   57.4    34    4.5     5      5.3   846.9    0.00       0    65.6
 125   21:00   57.0    34    6.2    11      7.0   846.9    0.00       0    65.6
 125   21:10   55.9    35    5.4    21      6.6   847.2    0.00       0    65.5
 125   21:20   55.3    36    2.6    23      5.0   847.3    0.00       0    65.3
 125   21:30   55.0    36    3.2    27      5.4   847.4    0.00       0    65.3
 125   21:40   55.3    36    5.1    85      6.3   847.2    0.00       0    64.8
 125   21:50   57.4    35    5.7    98     11.8   847.4    0.00       0    64.6
 125   22:00   58.2    34    6.0    75     10.2   847.6    0.00       0    65.1
 125   22:10   58.4    34    5.6    55      9.4   847.8    0.00       0    64.6
 125   22:20   58.3    36    7.3     9     13.6   847.9    0.00       0    64.2
 125   22:30   58.7    37   10.8     2     14.8   847.9    0.00       0    64.3
 125   22:40   58.4    38   11.6   360     15.8   848.0    0.00       0    64.1
 125   22:50   57.9    40   11.5   350     15.1   848.1    0.00       0    64.2
 125   23:00   57.2    42   11.2   348     14.8   848.2    0.00       0    63.9
 125   23:10   56.5    44   11.7   342     14.8   848.2    0.00       0    63.8
 125   23:20   55.9    45    9.6   334     12.9   848.1    0.00       0    63.9
 125   23:30   55.2    46    7.6   330     11.5   848.0    0.00       0    63.8
 125   23:40   54.4    48    4.9   331      7.6   848.0    0.00       0    63.8
 125   23:50   53.6    49    4.7   230      6.9   848.0    0.00       0    63.4
 126    0:00   53.5    50    3.7   217      6.8   847.7    0.00       0    63.3
 126    0:10   53.5    50    2.4   216      4.6   847.8    0.00       0    63.2
 126    0:20   52.5    51    2.5   191      4.0   847.7    0.00       0    63.3
 126    0:30   51.9    52    2.2   240      3.9   847.7    0.00       0    63.2
 126    0:40   51.2    53    1.9   203      3.1   847.7    0.00       0    62.9
 126    0:50   50.2    54    3.5   186      4.8   847.6    0.00       0    62.8
 126    1:00   49.6    54    3.7   195      4.6   847.6    0.00       0    62.8
 126    1:10   48.9    56    4.6   220      6.2   847.8    0.00       0    62.7
 126    1:20   49.8    57    4.7   236      6.6   847.8    0.00       0    62.6
 126    1:30   50.1    58    5.9   248      8.1   847.9    0.00       0    62.3
 126    1:40   49.7    59    5.8   237      7.7   847.9    0.00       0    62.0
 126    1:50   49.7    60    7.1   233      9.6   847.9    0.00       0    61.9
 126    2:00   50.3    58    6.3   221      8.8   847.9    0.00       0    61.9
 126    2:10   50.0    60    5.9   241      9.5   847.9    0.00       0    61.8
 126    2:20   49.9    60    7.1   253     10.7   847.9    0.00       0    61.6
 126    2:30   49.4    60    9.5   259     12.5   848.0    0.00       0    61.4
 126    2:40   49.0    61    8.9   257     11.3   848.0    0.00       0    61.3
 126    2:50   49.0    62    9.6   252     12.7   848.1    0.00       0    61.1
 126    3:00   50.1    60    7.3   245     11.8   848.2    0.00       0    61.0
 126    3:10   50.2    60    6.6   244      9.4   848.3    0.00       0    61.0
 126    3:20   50.1    60    7.5   251     10.8   848.4    0.00       0    60.8
 126    3:30   49.9    60    5.4   244      7.5   848.5    0.00       0    60.9
 126    3:40   49.6    61    5.9   249      8.1   848.5    0.00       0    60.6
 126    3:50   49.5    61    4.5   242      6.8   848.6    0.00       0    60.5
 126    4:00   48.8    62    5.4   242      7.2   848.6    0.00       0    60.5
 126    4:10   49.0    62    5.1   249      7.0   848.7    0.00       0    60.2
 126    4:20   48.6    63    4.5   248      6.9   848.8    0.00       0    60.2
 126    4:30   47.8    64    3.8   236      5.8   848.9    0.00       0    60.0
 126    4:40   47.1    66    4.6   249      6.8   848.9    0.00       1    60.0
 126    4:50   47.3    65    5.5   253      8.8   848.9    0.00       5    59.8
 126    5:00   48.1    64    5.2   252      7.2   848.9    0.00      12    59.7
 126    5:10   49.4    61    4.2   249      6.6   849.1    0.00      32    59.6
 126    5:20   49.8    60    4.7   277      6.3   849.3    0.00      58    59.4
 126    5:30   47.7    64    3.0   297      4.9   849.5    0.00      86    59.5
 126    5:40   48.3    63    2.8   316      4.0   849.8    0.00     112    59.5
 126    5:50   49.0    61    3.3   302      5.3   850.0    0.00     138    59.3
 126    6:00   49.8    60    3.8   322      5.6   850.3    0.00     165    59.4
 126    6:10   50.7    59    3.4   310      5.1   850.6    0.00     192    59.3
 126    6:20   52.3    56    2.2   294      3.7   850.8    0.00     220    59.5
 126    6:30   54.5    52    0.8   310      2.5   851.1    0.00     247    59.4
 126    6:40   56.3    49    0.3   322      2.2   851.3    0.00     275    59.5
 126    6:50   57.7    47    1.4   265      3.9   851.6    0.00     301    59.7
 126    7:00   58.4    47    2.1   262      4.2   851.8    0.00     329    59.9
 126    7:10   59.7    44    2.8   249      4.8   851.9    0.00     357    60.0
 126    7:20   59.8    44    1.8   224      5.6   852.1    0.00     382    60.4
 126    7:30   60.6    42    1.1   218      3.5   852.3    0.00     407    60.4
 126    7:40   62.4    40    0.5   350      3.5   852.4    0.00     431    60.5
 126    7:50   61.7    40    1.4    44      3.7   852.6    0.00     456    60.9
 126    8:00   62.8    38    1.3    85      4.5   852.9    0.00     480    61.3
 126    8:10   62.5    38    2.9    16      6.9   853.2    0.00     504    61.3
 126    8:20   63.2    37    1.7   314      6.2   853.2    0.00     527    61.4
 126    8:30   64.2    34    3.3   340      7.3   853.3    0.00     549    62.2
 126    8:40   63.8    33    4.7    18      9.9   853.3    0.00     572    62.9
 126    8:50   64.7    31    2.1     8      7.2   853.4    0.00     592    63.0
 126    9:00   65.3    29    5.6     4      9.1   853.4    0.00     611    63.4
 126    9:10   65.5    26    4.7    20     11.0   853.5    0.00     629    63.8
 126    9:20   66.4    25    5.5    29     10.4   853.4    0.00     646    64.2
 126    9:30   66.8    24    7.4    17     13.7   853.6    0.00     663    64.6
 126    9:40   67.0    23    6.7    18     11.1   853.7    0.00     679    65.4
 126    9:50   67.8    23    6.0    32     15.6   853.6    0.00     691    66.1
 126   10:00   67.9    23    8.1    15     18.0   853.7    0.00     704    66.3
 126   10:10   68.5    21    8.1    58     16.3   853.7    0.00     717    66.8
 126   10:20   68.5    21    9.0    56     19.9   853.7    0.00     727    67.4
 126   10:30   69.0    20    7.4    61     15.6   853.7    0.00     734    67.7
 126   10:40   69.9    19    8.2    49     18.6   853.7    0.00     741    68.2
 126   10:50   70.6    16   13.4    13     18.9   853.6    0.00     749    69.1
 126   11:00   70.8    15   10.3    13     16.1   853.5    0.00     754    69.3
 126   11:10   71.4    13   15.7    27     25.4   853.5    0.00     765    69.9
 126   11:20   71.2    13   14.7    28     21.0   853.5    0.00     770    70.2
 126   11:30   71.4    12   10.4    30     22.0   853.5    0.00     770    70.7
 126   11:40   72.1    12   15.4    40     24.3   853.5    0.00     771    71.6
 126   11:50   71.9    12   14.1    15     32.5   853.6    0.00     770    71.6
 126   12:00   72.3    12   11.7    37     20.0   853.5    0.00     769    72.1
 126   12:10   73.4    11   15.8    26     23.5   853.5    0.00     767    72.3
 126   12:20   72.8    11   12.2    57     20.1   853.5    0.00     762    72.6
 126   12:30   73.0    11   14.0    43     21.0   853.5    0.00     755    72.6
 126   12:40   73.2    12   10.6    31     18.9   853.5    0.00     748    72.4
 126   12:50   73.7    11   14.7    54     20.7   853.5    0.00     740    72.4
 126   13:00   73.6    11   10.6    52     17.9   853.5    0.00     732    72.3
 126   13:10   74.1    12   13.9    40     26.7   853.5    0.00     721    72.2
 126   13:20   74.1    11    9.6    48     21.9   853.5    0.00     710    72.0

Return to St. George, Utah graphs page.


Western Regional Climate Center,wrcc@dri.edu